Time;durP1;ratioP1;P1;durP2;ratioP2;P2;SDS_P1;SDS_P2;PMS_P1;PMS_P2;Temp;Humidity;BMP_temperature;BMP_pressure;BME280_temperature;BME280_humidity;BME280_pressure;Samples;Min_cycle;Max_cycle;Signal;HPM_P1;HPM_P2
2022/04/16 00:00:07;;;;;;;2.42;2.22;;;;;;;;;;4953760;29;20144;-78
2022/04/16 00:02:32;;;;;;;2.50;2.15;;;;;;;;;;4953148;29;20035;-78
2022/04/16 00:04:58;;;;;;;2.72;2.00;;;;;;;;;;4937275;28;20023;-78
2022/04/16 00:07:24;;;;;;;4.25;2.80;;;;;;;;;;4953529;28;20458;-78
2022/04/16 00:09:49;;;;;;;2.97;2.58;;;;;;;;;;4953141;29;20042;-78
2022/04/16 00:12:14;;;;;;;3.15;2.30;;;;;;;;;;4969336;28;20461;-78
2022/04/16 00:14:40;;;;;;;2.80;2.20;;;;;;;;;;4953142;29;20050;-78
2022/04/16 00:17:06;;;;;;;3.10;2.60;;;;;;;;;;4953013;29;20027;-78
2022/04/16 00:19:32;;;;;;;4.15;2.72;;;;;;;;;;4954487;28;20454;-78
2022/04/16 00:21:59;;;;;;;3.15;2.50;;;;;;;;;;4954394;28;20046;-78
2022/04/16 00:24:26;;;;;;;2.80;2.30;;;;;;;;;;4937143;29;20371;-79
2022/04/16 00:26:52;;;;;;;3.05;2.50;;;;;;;;;;4968675;28;20034;-80
2022/04/16 00:29:17;;;;;;;2.85;2.33;;;;;;;;;;4952790;29;20440;-78
2022/04/16 00:31:45;;;;;;;4.40;2.40;;;;;;;;;;4953904;28;20350;-79
2022/04/16 00:34:14;;;;;;;4.38;2.78;;;;;;;;;;4952854;29;20031;-79
2022/04/16 00:36:41;;;;;;;3.03;2.50;;;;;;;;;;4952422;29;20470;-79
2022/04/16 00:39:07;;;;;;;2.72;2.47;;;;;;;;;;4952755;29;20042;-79
2022/04/16 00:41:32;;;;;;;3.08;2.35;;;;;;;;;;4952391;29;20027;-79
2022/04/16 00:43:58;;;;;;;3.15;2.35;;;;;;;;;;4954034;29;20082;-79
2022/04/16 00:46:23;;;;;;;3.63;2.60;;;;;;;;;;4952431;29;20335;-77
2022/04/16 00:48:49;;;;;;;2.88;2.47;;;;;;;;;;4952107;29;20035;-80
2022/04/16 00:51:15;;;;;;;3.15;2.40;;;;;;;;;;4952229;29;20034;-78
2022/04/16 00:53:40;;;;;;;2.75;2.33;;;;;;;;;;4952135;28;20027;-78
2022/04/16 00:56:06;;;;;;;3.78;2.47;;;;;;;;;;4936333;29;20115;-78
2022/04/16 00:58:31;;;;;;;2.92;2.40;;;;;;;;;;4935807;29;20051;-78
2022/04/16 01:00:57;;;;;;;3.38;2.78;;;;;;;;;;4952384;29;20103;-78
2022/04/16 01:03:22;;;;;;;3.20;2.40;;;;;;;;;;4936194;29;20058;-79
2022/04/16 01:05:47;;;;;;;3.63;2.67;;;;;;;;;;4952131;29;20356;-79
2022/04/16 01:08:13;;;;;;;2.65;2.40;;;;;;;;;;4952085;29;20039;-79
2022/04/16 01:10:39;;;;;;;3.00;2.47;;;;;;;;;;4951845;29;20400;-79
2022/04/16 01:13:05;;;;;;;3.17;2.75;;;;;;;;;;4953476;29;20027;-79
2022/04/16 01:15:31;;;;;;;2.78;2.58;;;;;;;;;;4951985;29;20390;-78
2022/04/16 01:17:58;;;;;;;3.47;2.80;;;;;;;;;;4952130;29;20027;-79
2022/04/16 01:20:24;;;;;;;4.35;2.85;;;;;;;;;;4952082;29;20093;-79
2022/04/16 01:22:50;;;;;;;2.53;2.33;;;;;;;;;;4952045;29;20027;-79
2022/04/16 01:25:16;;;;;;;5.70;2.60;;;;;;;;;;4921059;29;20023;-79
2022/04/16 01:27:45;;;;;;;3.70;2.55;;;;;;;;;;4936087;29;20513;-79
2022/04/16 01:30:18;;;;;;;3.20;2.90;;;;;;;;;;4951616;29;20110;-79
2022/04/16 01:32:43;;;;;;;4.03;2.85;;;;;;;;;;4951473;29;20114;-79
2022/04/16 01:35:10;;;;;;;4.22;3.30;;;;;;;;;;4935919;28;20398;-79
2022/04/16 01:37:37;;;;;;;3.00;2.70;;;;;;;;;;4951465;29;20073;-79
2022/04/16 01:40:05;;;;;;;3.10;2.75;;;;;;;;;;4951872;28;20047;-78
2022/04/16 01:42:32;;;;;;;4.32;2.63;;;;;;;;;;4951749;28;20138;-78
2022/04/16 01:45:00;;;;;;;4.43;3.05;;;;;;;;;;4951789;29;20031;-78
2022/04/16 01:47:25;;;;;;;3.95;3.00;;;;;;;;;;4953194;29;20352;-79
2022/04/16 01:49:51;;;;;;;3.30;2.58;;;;;;;;;;4952717;29;20058;-78
2022/04/16 01:52:16;;;;;;;3.58;3.08;;;;;;;;;;4953037;28;20031;-79
2022/04/16 01:54:41;;;;;;;4.57;2.80;;;;;;;;;;4952716;29;20054;-78
2022/04/16 01:57:07;;;;;;;4.03;3.35;;;;;;;;;;4951624;29;20031;-79
2022/04/16 01:59:32;;;;;;;3.15;2.80;;;;;;;;;;4951237;29;20462;-78
2022/04/16 02:01:58;;;;;;;4.50;3.45;;;;;;;;;;4951278;29;20031;-78
2022/04/16 02:04:24;;;;;;;4.28;3.15;;;;;;;;;;4952783;29;20051;-78
2022/04/16 02:06:51;;;;;;;3.22;2.85;;;;;;;;;;4951433;29;20117;-78
2022/04/16 02:09:19;;;;;;;3.40;3.10;;;;;;;;;;4934414;29;20122;-78
2022/04/16 02:11:44;;;;;;;3.78;2.80;;;;;;;;;;4950878;29;20035;-78
2022/04/16 02:14:10;;;;;;;3.40;3.10;;;;;;;;;;4951297;29;20038;-78
2022/04/16 02:16:35;;;;;;;3.13;2.80;;;;;;;;;;4952448;29;20031;-78
2022/04/16 02:19:00;;;;;;;3.88;3.10;;;;;;;;;;4952453;29;20568;-78
2022/04/16 02:21:32;;;;;;;4.30;3.45;;;;;;;;;;4952365;28;20101;-78
2022/04/16 02:23:58;;;;;;;4.13;2.95;;;;;;;;;;4952473;29;20023;-79
2022/04/16 02:26:23;;;;;;;3.45;3.08;;;;;;;;;;4952244;29;20031;-79
2022/04/16 02:28:49;;;;;;;4.05;3.08;;;;;;;;;;4952332;29;20057;-79
2022/04/16 02:31:14;;;;;;;3.72;3.30;;;;;;;;;;4950864;29;20473;-79
2022/04/16 02:33:41;;;;;;;3.97;3.20;;;;;;;;;;4950810;29;20194;-79
2022/04/16 02:36:07;;;;;;;8.48;3.50;;;;;;;;;;4967240;28;20350;-79
2022/04/16 02:38:33;;;;;;;5.78;3.40;;;;;;;;;;4934542;29;20134;-79
2022/04/16 02:40:58;;;;;;;4.20;3.33;;;;;;;;;;4950766;29;20055;-79
2022/04/16 02:43:24;;;;;;;4.40;3.35;;;;;;;;;;4950788;29;20476;-79
2022/04/16 02:48:33;;;;;;;4.03;3.28;;;;;;;;;;4951073;29;20046;-78
2022/04/16 02:50:59;;;;;;;3.65;3.28;;;;;;;;;;4951861;29;20044;-79
2022/04/16 02:53:26;;;;;;;3.53;3.05;;;;;;;;;;4950564;28;20034;-78
2022/04/16 02:55:55;;;;;;;5.07;3.42;;;;;;;;;;4952157;29;20489;-78
2022/04/16 02:58:20;;;;;;;4.50;3.10;;;;;;;;;;4952024;28;20162;-79
2022/04/16 03:00:46;;;;;;;3.78;2.83;;;;;;;;;;4950742;29;20122;-78
2022/04/16 03:03:11;;;;;;;5.65;3.40;;;;;;;;;;4950688;29;20023;-79
2022/04/16 03:05:37;;;;;;;4.57;3.15;;;;;;;;;;4951994;28;20044;-78
2022/04/16 03:08:06;;;;;;;4.10;3.15;;;;;;;;;;4950409;29;20031;-78
2022/04/16 03:10:31;;;;;;;5.85;3.05;;;;;;;;;;4950441;29;20433;-78
2022/04/16 03:12:57;;;;;;;5.53;3.33;;;;;;;;;;4950387;29;20108;-79
2022/04/16 03:18:07;;;;;;;5.03;3.53;;;;;;;;;;4950271;29;20139;-79
2022/04/16 03:20:33;;;;;;;5.75;3.35;;;;;;;;;;4951407;28;20489;-79
2022/04/16 03:22:59;;;;;;;3.20;2.60;;;;;;;;;;4937855;29;20167;-79
2022/04/16 03:25:28;;;;;;;3.78;3.22;;;;;;;;;;4953781;29;20031;-78
2022/04/16 03:27:54;;;;;;;4.70;3.00;;;;;;;;;;4938008;29;20111;-78
2022/04/16 03:30:19;;;;;;;3.63;2.90;;;;;;;;;;4953763;29;20122;-79
2022/04/16 03:32:47;;;;;;;4.43;2.90;;;;;;;;;;4955036;29;20541;-79
2022/04/16 03:35:13;;;;;;;4.03;3.05;;;;;;;;;;4954933;28;20457;-79
2022/04/16 03:37:38;;;;;;;3.30;2.70;;;;;;;;;;4953412;29;20067;-78
2022/04/16 03:40:04;;;;;;;3.15;2.70;;;;;;;;;;4953459;29;20046;-79
2022/04/16 03:42:31;;;;;;;5.10;3.42;;;;;;;;;;4955214;28;20114;-79
2022/04/16 03:45:00;;;;;;;3.80;2.95;;;;;;;;;;4937612;29;20399;-80
2022/04/16 03:47:27;;;;;;;3.13;2.83;;;;;;;;;;4953479;29;20156;-80
2022/04/16 03:49:53;;;;;;;4.43;3.10;;;;;;;;;;4953319;29;20467;-78
2022/04/16 03:52:18;;;;;;;6.28;3.25;;;;;;;;;;4953344;28;20046;-78
2022/04/16 04:00:12;;;;;;;3.33;3.03;;;;;;;;;;4953506;29;20461;-78
2022/04/16 04:02:38;;;;;;;3.42;3.03;;;;;;;;;;4953428;29;20035;-78
2022/04/16 04:05:05;;;;;;;4.57;3.17;;;;;;;;;;4952955;28;20043;-79
2022/04/16 04:07:31;;;;;;;3.78;2.97;;;;;;;;;;4952913;29;20031;-78
2022/04/16 04:09:57;;;;;;;5.80;2.88;;;;;;;;;;4936981;29;20058;-78
2022/04/16 04:12:22;;;;;;;3.65;3.03;;;;;;;;;;4952864;29;20036;-78
2022/04/16 04:14:47;;;;;;;4.22;3.05;;;;;;;;;;4937076;29;20062;-78
2022/04/16 04:17:14;;;;;;;3.35;2.80;;;;;;;;;;4952751;29;20037;-78
2022/04/16 04:19:41;;;;;;;3.45;2.95;;;;;;;;;;4952793;29;20034;-78
2022/04/16 04:22:08;;;;;;;4.75;2.80;;;;;;;;;;4954198;29;20038;-78
2022/04/16 04:24:36;;;;;;;4.60;3.40;;;;;;;;;;4952793;28;20372;-78
2022/04/16 04:27:01;;;;;;;3.65;3.05;;;;;;;;;;4952799;28;20041;-78
2022/04/16 04:29:28;;;;;;;3.63;3.20;;;;;;;;;;4954043;29;20031;-78
2022/04/16 04:31:54;;;;;;;4.32;3.15;;;;;;;;;;4952722;28;20038;-78
2022/04/16 04:34:19;;;;;;;5.82;3.28;;;;;;;;;;4953952;28;20035;-79
2022/04/16 04:36:45;;;;;;;4.97;3.25;;;;;;;;;;4954375;29;20369;-79
2022/04/16 04:39:11;;;;;;;4.15;3.38;;;;;;;;;;4953475;29;20061;-79
2022/04/16 04:41:36;;;;;;;3.72;3.05;;;;;;;;;;4969899;28;20051;-79
2022/04/16 04:44:01;;;;;;;4.05;3.17;;;;;;;;;;4953682;29;20031;-79
2022/04/16 04:46:27;;;;;;;5.55;3.72;;;;;;;;;;4954976;28;20113;-79
2022/04/16 04:48:52;;;;;;;3.47;3.17;;;;;;;;;;4955012;29;20394;-79
2022/04/16 04:51:17;;;;;;;4.32;3.40;;;;;;;;;;4953532;29;20031;-79
2022/04/16 04:53:43;;;;;;;4.80;3.92;;;;;;;;;;4953425;28;20073;-79
2022/04/16 04:56:08;;;;;;;4.05;3.40;;;;;;;;;;4969928;28;20470;-78
2022/04/16 04:58:34;;;;;;;4.50;3.50;;;;;;;;;;4953266;29;20039;-78
2022/04/16 05:00:59;;;;;;;5.15;3.58;;;;;;;;;;4971280;28;20035;-78
2022/04/16 05:03:24;;;;;;;4.97;3.88;;;;;;;;;;4940310;29;20130;-79
2022/04/16 05:05:50;;;;;;;3.80;3.35;;;;;;;;;;4938942;29;20106;-79
2022/04/16 05:08:15;;;;;;;4.80;3.58;;;;;;;;;;4957134;29;20031;-78
2022/04/16 05:10:41;;;;;;;6.15;3.78;;;;;;;;;;4956799;29;20035;-79
2022/04/16 05:13:06;;;;;;;5.65;3.90;;;;;;;;;;4957775;28;20118;-79
2022/04/16 05:15:31;;;;;;;5.38;4.20;;;;;;;;;;4971444;28;20039;-78
2022/04/16 05:17:57;;;;;;;6.30;4.07;;;;;;;;;;4955976;28;20027;-78
2022/04/16 05:20:22;;;;;;;5.07;3.90;;;;;;;;;;4956144;28;20035;-79
2022/04/16 05:22:48;;;;;;;4.90;3.90;;;;;;;;;;4955193;29;20106;-79
2022/04/16 05:25:13;;;;;;;5.43;4.20;;;;;;;;;;4957094;28;20065;-78
2022/04/16 05:27:38;;;;;;;4.55;3.88;;;;;;;;;;4956135;29;20027;-79
2022/04/16 05:30:13;;;;;;;6.32;4.55;;;;;;;;;;4938007;29;20039;-78
2022/04/16 05:32:40;;;;;;;4.57;3.85;;;;;;;;;;4940123;29;20106;-79
2022/04/16 05:35:07;;;;;;;5.47;4.60;;;;;;;;;;4955382;28;20041;-79
2022/04/16 05:37:33;;;;;;;5.18;4.22;;;;;;;;;;4939255;29;20055;-79
2022/04/16 05:39:59;;;;;;;6.72;4.07;;;;;;;;;;4956425;29;20027;-79
2022/04/16 05:42:24;;;;;;;5.30;4.20;;;;;;;;;;4954685;29;20390;-79
2022/04/16 05:44:49;;;;;;;5.22;4.03;;;;;;;;;;4953183;28;20051;-78
2022/04/16 05:47:15;;;;;;;5.10;4.00;;;;;;;;;;4956016;29;20137;-78
2022/04/16 05:49:40;;;;;;;6.65;4.57;;;;;;;;;;4954015;29;20035;-79
2022/04/16 05:52:06;;;;;;;6.45;4.30;;;;;;;;;;4955593;28;20538;-79
2022/04/16 05:54:32;;;;;;;6.07;4.45;;;;;;;;;;4954063;29;20041;-79
2022/04/16 05:56:58;;;;;;;5.45;4.63;;;;;;;;;;4954155;29;20031;-78
2022/04/16 05:59:23;;;;;;;6.15;4.60;;;;;;;;;;4954408;29;20086;-79
2022/04/16 06:01:49;;;;;;;6.43;4.88;;;;;;;;;;4970535;28;20075;-79
2022/04/16 06:04:14;;;;;;;6.05;4.78;;;;;;;;;;4938841;29;20030;-79
2022/04/16 06:06:40;;;;;;;5.82;4.68;;;;;;;;;;4955704;28;20047;-79
2022/04/16 06:09:05;;;;;;;6.90;4.72;;;;;;;;;;4955616;29;20470;-80
2022/04/16 06:11:32;;;;;;;6.70;5.20;;;;;;;;;;4954767;29;20043;-78
2022/04/16 06:13:57;;;;;;;5.78;4.60;;;;;;;;;;4955524;28;20035;-77
2022/04/16 06:16:23;;;;;;;8.18;6.00;;;;;;;;;;4954047;29;20493;-79
2022/04/16 06:18:48;;;;;;;7.32;5.55;;;;;;;;;;4954022;29;20042;-79
2022/04/16 06:21:13;;;;;;;6.57;4.75;;;;;;;;;;4953904;29;20124;-82
2022/04/16 06:23:39;;;;;;;10.55;6.28;;;;;;;;;;4955485;28;20039;-81
2022/04/16 06:26:04;;;;;;;13.88;5.38;;;;;;;;;;4970550;28;20053;-79
2022/04/16 06:28:30;;;;;;;15.57;6.13;;;;;;;;;;4954099;29;20039;-82
2022/04/16 06:30:55;;;;;;;13.77;7.05;;;;;;;;;;4955194;29;20030;-82
2022/04/16 06:33:21;;;;;;;13.40;6.60;;;;;;;;;;4956469;28;20031;-82
2022/04/16 06:35:46;;;;;;;10.90;6.18;;;;;;;;;;4955852;29;20039;-82
2022/04/16 06:38:12;;;;;;;11.93;6.82;;;;;;;;;;4955448;29;20101;-82
2022/04/16 06:40:37;;;;;;;9.90;6.57;;;;;;;;;;4955391;29;20031;-80
2022/04/16 06:43:03;;;;;;;10.07;5.18;;;;;;;;;;4955494;28;20035;-80
2022/04/16 06:45:28;;;;;;;11.65;5.43;;;;;;;;;;4954019;29;20082;-81
2022/04/16 06:47:53;;;;;;;11.45;5.15;;;;;;;;;;4955064;29;20035;-81
2022/04/16 06:50:20;;;;;;;10.10;5.63;;;;;;;;;;4953815;29;20115;-80
2022/04/16 06:52:45;;;;;;;8.13;4.43;;;;;;;;;;4937919;29;20039;-80
2022/04/16 06:55:11;;;;;;;9.38;5.35;;;;;;;;;;4954493;28;20445;-83
2022/04/16 06:57:36;;;;;;;12.57;5.10;;;;;;;;;;4960467;29;20127;-78
2022/04/16 07:00:06;;;;;;;11.80;5.53;;;;;;;;;;4959823;29;20487;-81
2022/04/16 07:02:31;;;;;;;11.15;5.30;;;;;;;;;;4958060;29;20465;-81
2022/04/16 07:04:58;;;;;;;9.73;4.53;;;;;;;;;;4973732;28;20028;-81
2022/04/16 07:07:23;;;;;;;8.60;4.63;;;;;;;;;;4957999;29;20135;-80
2022/04/16 07:09:49;;;;;;;12.30;5.72;;;;;;;;;;4959873;29;20169;-81
2022/04/16 07:12:14;;;;;;;12.45;5.00;;;;;;;;;;4957307;29;20102;-81
2022/04/16 07:14:40;;;;;;;9.98;4.85;;;;;;;;;;4956681;29;20031;-81
2022/04/16 07:17:09;;;;;;;7.88;4.43;;;;;;;;;;4973124;28;20142;-81
2022/04/16 07:19:35;;;;;;;8.90;4.22;;;;;;;;;;4958424;28;20064;-81
2022/04/16 07:22:01;;;;;;;7.43;4.50;;;;;;;;;;4942209;29;20023;-81
2022/04/16 07:24:27;;;;;;;8.20;4.10;;;;;;;;;;4959227;28;20055;-80
2022/04/16 07:26:54;;;;;;;11.40;3.88;;;;;;;;;;4957715;29;20035;-80
2022/04/16 07:29:23;;;;;;;11.80;4.00;;;;;;;;;;4958035;28;20073;-82
2022/04/16 07:31:49;;;;;;;9.55;4.03;;;;;;;;;;4957119;29;20094;-80
2022/04/16 07:34:14;;;;;;;9.90;4.00;;;;;;;;;;4939878;29;20469;-80
2022/04/16 07:36:42;;;;;;;9.00;4.63;;;;;;;;;;4958363;29;20035;-80
2022/04/16 07:39:08;;;;;;;15.15;4.22;;;;;;;;;;4955975;29;20095;-79
2022/04/16 07:41:33;;;;;;;10.10;4.60;;;;;;;;;;4955823;29;20063;-79
2022/04/16 07:44:03;;;;;;;6.80;4.07;;;;;;;;;;4956705;29;20046;-79
2022/04/16 07:46:29;;;;;;;8.60;4.03;;;;;;;;;;4955049;29;20042;-79
2022/04/16 07:48:57;;;;;;;9.48;4.10;;;;;;;;;;4956282;28;20093;-79
2022/04/16 07:51:22;;;;;;;6.15;3.58;;;;;;;;;;4970941;28;20102;-79
2022/04/16 07:53:47;;;;;;;10.70;4.25;;;;;;;;;;4954699;28;20483;-79
2022/04/16 07:56:13;;;;;;;7.90;3.83;;;;;;;;;;4970707;28;20082;-78
2022/04/16 07:58:38;;;;;;;5.07;3.50;;;;;;;;;;4954707;29;20386;-79
2022/04/16 08:01:03;;;;;;;5.78;3.53;;;;;;;;;;4938590;29;20114;-80
2022/04/16 08:03:29;;;;;;;10.52;3.47;;;;;;;;;;4954307;29;20039;-80
2022/04/16 08:05:54;;;;;;;6.28;3.63;;;;;;;;;;4954350;29;20031;-80
2022/04/16 08:08:19;;;;;;;8.23;3.55;;;;;;;;;;4953413;28;20435;-79
2022/04/16 08:10:46;;;;;;;5.88;3.33;;;;;;;;;;4955393;29;20047;-80
2022/04/16 08:13:11;;;;;;;4.15;3.28;;;;;;;;;;4954384;28;20038;-80
2022/04/16 08:15:37;;;;;;;6.15;3.20;;;;;;;;;;4954107;29;20031;-81
2022/04/16 08:18:02;;;;;;;6.88;3.17;;;;;;;;;;4938038;29;20031;-80
2022/04/16 08:20:28;;;;;;;5.40;3.63;;;;;;;;;;4954335;29;20051;-80
2022/04/16 08:22:54;;;;;;;6.28;3.70;;;;;;;;;;4955555;28;20537;-81
2022/04/16 08:27:45;;;;;;;5.95;2.90;;;;;;;;;;4954247;29;20027;-80
2022/04/16 08:30:15;;;;;;;6.30;3.00;;;;;;;;;;4953371;28;20406;-80
2022/04/16 08:32:41;;;;;;;5.03;3.03;;;;;;;;;;4953831;29;20514;-80
2022/04/16 08:35:11;;;;;;;6.07;3.00;;;;;;;;;;4953471;29;20370;-81
2022/04/16 08:37:37;;;;;;;4.10;2.88;;;;;;;;;;4937913;29;20470;-81
2022/04/16 08:40:06;;;;;;;4.80;2.80;;;;;;;;;;4953304;28;20037;-81
2022/04/16 08:42:36;;;;;;;4.63;3.78;;;;;;;;;;4953393;28;20085;-81
2022/04/16 08:45:06;;;;;;;4.18;3.30;;;;;;;;;;4937536;28;20083;-79
2022/04/16 08:47:32;;;;;;;5.22;3.42;;;;;;;;;;4955167;28;20103;-80
2022/04/16 08:49:59;;;;;;;5.15;3.05;;;;;;;;;;4954943;28;20454;-79
2022/04/16 08:52:29;;;;;;;5.50;2.90;;;;;;;;;;4953676;28;20102;-80
2022/04/16 08:54:55;;;;;;;3.45;3.03;;;;;;;;;;4953399;29;20027;-81
2022/04/16 08:57:20;;;;;;;3.65;2.88;;;;;;;;;;4938013;29;20039;-81
2022/04/16 08:59:51;;;;;;;5.30;2.90;;;;;;;;;;4937807;29;20413;-81
2022/04/16 09:02:17;;;;;;;6.07;2.38;;;;;;;;;;4953453;29;20027;-80
2022/04/16 09:04:42;;;;;;;4.60;3.40;;;;;;;;;;4953969;29;20062;-81
2022/04/16 09:07:08;;;;;;;5.65;2.88;;;;;;;;;;4937653;29;20137;-81
2022/04/16 09:09:34;;;;;;;3.75;2.60;;;;;;;;;;4954989;29;20039;-81
2022/04/16 09:11:59;;;;;;;4.10;2.92;;;;;;;;;;4953280;29;20031;-80
2022/04/16 09:14:35;;;;;;;4.82;3.45;;;;;;;;;;4953436;29;20466;-81
2022/04/16 09:17:00;;;;;;;4.25;3.20;;;;;;;;;;4969881;28;20069;-81
2022/04/16 09:19:28;;;;;;;4.63;3.30;;;;;;;;;;4954063;28;20059;-81
2022/04/16 09:21:54;;;;;;;3.38;2.95;;;;;;;;;;4952697;29;20042;-81
2022/04/16 09:24:19;;;;;;;4.57;2.80;;;;;;;;;;4952600;29;20035;-81
2022/04/16 09:26:51;;;;;;;3.05;2.42;;;;;;;;;;4954773;29;20034;-81
2022/04/16 09:29:18;;;;;;;5.07;2.50;;;;;;;;;;4954800;29;20054;-80
2022/04/16 09:31:51;;;;;;;2.83;2.53;;;;;;;;;;4954936;28;20023;-79
2022/04/16 09:34:18;;;;;;;2.50;2.28;;;;;;;;;;4971117;28;20041;-80
2022/04/16 09:36:44;;;;;;;2.90;2.58;;;;;;;;;;4954535;29;20134;-80
2022/04/16 09:39:13;;;;;;;4.10;2.50;;;;;;;;;;4953888;29;20070;-80
2022/04/16 09:41:40;;;;;;;2.20;1.95;;;;;;;;;;4954960;28;20063;-80
2022/04/16 09:44:20;;;;;;;2.85;2.25;;;;;;;;;;4939039;29;20034;-80
2022/04/16 09:46:46;;;;;;;3.97;2.42;;;;;;;;;;4956013;29;20071;-79
2022/04/16 09:49:12;;;;;;;3.35;2.70;;;;;;;;;;4939659;29;20041;-80
2022/04/16 09:51:40;;;;;;;3.30;2.40;;;;;;;;;;4954427;28;20508;-81
2022/04/16 09:54:06;;;;;;;3.47;2.75;;;;;;;;;;4955951;28;20122;-80
2022/04/16 09:56:34;;;;;;;3.15;2.78;;;;;;;;;;4954870;29;20051;-82
2022/04/16 09:59:03;;;;;;;4.22;2.25;;;;;;;;;;4955047;29;20027;-82
2022/04/16 10:01:28;;;;;;;2.35;2.08;;;;;;;;;;4954676;29;20035;-82
2022/04/16 10:03:54;;;;;;;6.50;2.45;;;;;;;;;;4955044;29;20089;-82
2022/04/16 10:06:20;;;;;;;2.88;2.38;;;;;;;;;;4954657;29;20075;-81
2022/04/16 10:08:49;;;;;;;4.85;2.45;;;;;;;;;;4955096;29;20138;-81
2022/04/16 10:11:20;;;;;;;2.75;2.17;;;;;;;;;;4956290;29;20075;-80
2022/04/16 10:13:55;;;;;;;3.47;2.22;;;;;;;;;;4954809;29;20035;-80
2022/04/16 10:16:26;;;;;;;4.95;2.17;;;;;;;;;;4955218;29;20019;-80
2022/04/16 10:18:51;;;;;;;2.45;2.08;;;;;;;;;;4954447;29;20031;-80
2022/04/16 10:21:17;;;;;;;2.22;2.00;;;;;;;;;;4955620;29;20497;-81
2022/04/16 10:23:43;;;;;;;2.22;1.95;;;;;;;;;;4955109;29;20023;-80
2022/04/16 10:26:13;;;;;;;2.13;1.90;;;;;;;;;;4956073;28;20090;-81
2022/04/16 10:28:55;;;;;;;3.05;2.20;;;;;;;;;;4955474;29;20027;-81
2022/04/16 10:31:29;;;;;;;2.70;2.08;;;;;;;;;;4957798;28;20027;-79
2022/04/16 10:33:59;;;;;;;7.00;2.42;;;;;;;;;;4958390;29;20506;-81
2022/04/16 10:36:33;;;;;;;4.22;1.90;;;;;;;;;;4958657;29;20043;-79
2022/04/16 10:39:12;;;;;;;2.97;2.50;;;;;;;;;;4957998;29;20135;-79
2022/04/16 10:41:38;;;;;;;7.15;2.60;;;;;;;;;;4957652;29;20426;-79
2022/04/16 10:44:08;;;;;;;6.00;3.08;;;;;;;;;;4957636;29;20058;-78
2022/04/16 10:46:45;;;;;;;7.93;2.33;;;;;;;;;;4941764;29;20450;-79
2022/04/16 10:49:12;;;;;;;4.78;2.67;;;;;;;;;;4942107;29;20042;-78
2022/04/16 10:51:37;;;;;;;4.13;2.53;;;;;;;;;;4957303;28;20132;-82
2022/04/16 10:54:10;;;;;;;10.88;2.30;;;;;;;;;;4957431;29;20052;-81
2022/04/16 10:56:40;;;;;;;2.88;2.17;;;;;;;;;;4941332;29;20078;-81
2022/04/16 10:59:08;;;;;;;4.53;2.25;;;;;;;;;;4957680;28;20027;-81
2022/04/16 11:01:34;;;;;;;8.77;2.10;;;;;;;;;;4957692;29;20114;-78
2022/04/16 11:03:59;;;;;;;2.97;2.17;;;;;;;;;;4940527;29;20027;-79
2022/04/16 11:06:35;;;;;;;8.40;2.22;;;;;;;;;;4955991;29;20035;-80
2022/04/16 11:09:00;;;;;;;8.00;2.72;;;;;;;;;;4956151;28;20023;-80
2022/04/16 11:11:26;;;;;;;7.00;2.22;;;;;;;;;;4940325;29;20034;-80
2022/04/16 11:13:52;;;;;;;6.45;2.30;;;;;;;;;;4956214;29;20118;-82
2022/04/16 11:16:23;;;;;;;7.28;2.20;;;;;;;;;;4957082;29;20035;-77
2022/04/16 11:18:49;;;;;;;7.72;2.42;;;;;;;;;;4939968;29;20038;-80
2022/04/16 11:21:21;;;;;;;4.28;2.20;;;;;;;;;;4956921;28;20032;-82
2022/04/16 11:23:52;;;;;;;4.40;2.30;;;;;;;;;;4955779;28;20034;-81
2022/04/16 11:34:44;;;;;;;5.05;2.38;;;;;;;;;;4956781;29;20042;-80
2022/04/16 11:37:09;;;;;;;4.80;2.10;;;;;;;;;;4972722;28;20126;-81
2022/04/16 11:39:35;;;;;;;6.63;2.00;;;;;;;;;;4960251;29;20034;-80
2022/04/16 11:42:05;;;;;;;7.07;2.33;;;;;;;;;;4940487;29;20501;-83
2022/04/16 11:44:45;;;;;;;3.92;1.98;;;;;;;;;;4956410;29;20119;-81
2022/04/16 11:47:35;;;;;;;5.63;2.38;;;;;;;;;;4955723;28;20027;-82
2022/04/16 11:50:03;;;;;;;6.57;1.80;;;;;;;;;;4955587;29;20121;-83
2022/04/16 11:52:37;;;;;;;4.78;1.90;;;;;;;;;;4955946;28;20083;-81
2022/04/16 11:55:34;;;;;;;3.22;1.90;;;;;;;;;;4955789;28;20034;-81
2022/04/16 11:58:00;;;;;;;5.82;2.25;;;;;;;;;;4941400;28;20027;-81
2022/04/16 12:00:28;;;;;;;5.30;1.85;;;;;;;;;;4955280;28;20371;-82
2022/04/16 12:02:56;;;;;;;9.70;2.47;;;;;;;;;;4971252;28;20382;-80
2022/04/16 12:05:27;;;;;;;3.90;1.77;;;;;;;;;;4955217;28;20430;-80
2022/04/16 12:07:57;;;;;;;3.03;1.40;;;;;;;;;;4955311;28;20114;-81
2022/04/16 12:10:24;;;;;;;1.65;1.38;;;;;;;;;;4939225;29;20042;-81
2022/04/16 12:12:52;;;;;;;4.97;1.65;;;;;;;;;;4938985;28;20500;-80
2022/04/16 12:15:30;;;;;;;2.63;1.50;;;;;;;;;;4954555;29;20118;-80
2022/04/16 12:18:07;;;;;;;2.55;1.73;;;;;;;;;;4954775;28;20031;-81
2022/04/16 12:20:33;;;;;;;3.45;1.67;;;;;;;;;;4954671;29;20030;-80
2022/04/16 12:23:02;;;;;;;2.90;1.40;;;;;;;;;;4938775;29;20031;-80
2022/04/16 12:25:28;;;;;;;8.65;1.75;;;;;;;;;;4954885;29;20027;-80
2022/04/16 12:27:58;;;;;;;5.55;1.42;;;;;;;;;;4954837;29;20034;-81
2022/04/16 12:30:26;;;;;;;1.30;1.08;;;;;;;;;;4955148;29;20023;-80
2022/04/16 12:33:04;;;;;;;3.42;1.45;;;;;;;;;;4954901;28;20028;-80
2022/04/16 12:35:31;;;;;;;4.97;1.30;;;;;;;;;;4956337;29;20031;-80
2022/04/16 12:37:57;;;;;;;2.67;1.50;;;;;;;;;;4954543;29;20515;-80
2022/04/16 12:40:24;;;;;;;4.13;1.40;;;;;;;;;;4939408;29;20061;-80
2022/04/16 12:42:50;;;;;;;1.65;1.30;;;;;;;;;;4956675;28;20369;-81
2022/04/16 12:45:16;;;;;;;2.72;1.50;;;;;;;;;;4955077;29;20534;-81
2022/04/16 12:47:42;;;;;;;3.25;1.20;;;;;;;;;;4955240;29;20059;-81
2022/04/16 12:50:09;;;;;;;5.45;1.42;;;;;;;;;;4955465;28;20166;-81
2022/04/16 12:52:34;;;;;;;1.60;1.50;;;;;;;;;;4954631;28;20073;-81
2022/04/16 12:55:00;;;;;;;3.17;1.30;;;;;;;;;;4955092;28;20027;-81
2022/04/16 12:57:25;;;;;;;2.10;1.20;;;;;;;;;;4953833;29;20027;-81
2022/04/16 12:59:51;;;;;;;2.47;1.40;;;;;;;;;;4953762;29;20052;-81
2022/04/16 13:02:16;;;;;;;1.92;1.23;;;;;;;;;;4937943;29;20028;-81
2022/04/16 13:04:41;;;;;;;1.45;1.02;;;;;;;;;;4937596;29;20219;-82
2022/04/16 13:07:07;;;;;;;1.48;1.08;;;;;;;;;;4937541;29;20031;-82
2022/04/16 13:09:32;;;;;;;2.00;1.40;;;;;;;;;;4937403;29;20130;-82
2022/04/16 13:11:58;;;;;;;1.60;1.20;;;;;;;;;;4953175;29;20057;-81
2022/04/16 13:14:23;;;;;;;2.78;1.20;;;;;;;;;;4954929;28;20054;-83
2022/04/16 13:16:48;;;;;;;1.95;1.40;;;;;;;;;;4938548;29;20086;-81
2022/04/16 13:19:15;;;;;;;1.98;1.00;;;;;;;;;;4954115;29;20070;-80
2022/04/16 13:21:41;;;;;;;1.38;1.08;;;;;;;;;;4938699;29;20101;-82
2022/04/16 13:24:11;;;;;;;3.80;1.25;;;;;;;;;;4937853;29;20029;-81
2022/04/16 13:26:37;;;;;;;1.95;1.23;;;;;;;;;;4954816;28;20061;-80
2022/04/16 13:29:02;;;;;;;0.90;0.90;;;;;;;;;;4937417;29;20498;-82
2022/04/16 13:31:28;;;;;;;1.10;1.00;;;;;;;;;;4953286;29;20062;-81
2022/04/16 13:33:53;;;;;;;1.73;1.10;;;;;;;;;;4937740;29;20094;-82
2022/04/16 13:36:19;;;;;;;4.32;1.20;;;;;;;;;;4954212;29;20039;-82
2022/04/16 13:38:44;;;;;;;2.42;1.15;;;;;;;;;;4952767;28;20055;-82
2022/04/16 13:41:52;;;;;;;1.48;1.25;;;;;;;;;;4952713;29;20062;-81
2022/04/16 13:43:58;;;;;;;1.38;1.00;;;;;;;;;;4951462;28;20031;-81
2022/04/16 13:46:23;;;;;;;2.63;1.23;;;;;;;;;;4937039;29;20062;-82
2022/04/16 13:48:49;;;;;;;1.98;1.20;;;;;;;;;;4954068;29;20031;-81
2022/04/16 13:51:14;;;;;;;1.15;1.00;;;;;;;;;;4954480;28;20027;-82
2022/04/16 13:53:40;;;;;;;2.45;1.17;;;;;;;;;;4954192;28;20039;-82
2022/04/16 13:56:06;;;;;;;4.30;1.30;;;;;;;;;;4954377;29;20399;-82
2022/04/16 13:58:31;;;;;;;1.10;1.00;;;;;;;;;;4954290;28;20037;-82
2022/04/16 14:00:57;;;;;;;1.70;1.30;;;;;;;;;;4953942;29;20031;-82
2022/04/16 14:03:22;;;;;;;1.52;1.08;;;;;;;;;;4952913;28;20039;-82
2022/04/16 14:05:48;;;;;;;1.40;1.30;;;;;;;;;;4953731;28;20106;-82
2022/04/16 14:08:15;;;;;;;2.03;1.10;;;;;;;;;;4952658;29;20039;-82
2022/04/16 14:10:41;;;;;;;1.45;1.10;;;;;;;;;;4952807;29;20327;-81
2022/04/16 14:13:08;;;;;;;1.00;1.00;;;;;;;;;;4936544;29;20050;-81
2022/04/16 14:15:34;;;;;;;1.38;0.98;;;;;;;;;;4952559;29;20383;-81
2022/04/16 14:18:00;;;;;;;1.33;1.10;;;;;;;;;;4936528;29;20089;-81
2022/04/16 14:20:25;;;;;;;1.30;1.13;;;;;;;;;;4952533;29;20034;-82
2022/04/16 14:22:51;;;;;;;1.17;0.93;;;;;;;;;;4954039;28;20032;-81
2022/04/16 14:25:16;;;;;;;2.28;1.23;;;;;;;;;;4954226;29;20110;-82
2022/04/16 14:27:42;;;;;;;1.92;1.17;;;;;;;;;;4953635;29;20034;-81
2022/04/16 14:30:08;;;;;;;1.00;1.00;;;;;;;;;;4955843;28;20035;-81
2022/04/16 14:32:33;;;;;;;3.35;1.50;;;;;;;;;;4956721;29;20031;-78
2022/04/16 14:34:59;;;;;;;1.42;1.23;;;;;;;;;;4956113;28;20034;-80
2022/04/16 14:37:26;;;;;;;5.53;1.40;;;;;;;;;;4958323;28;20034;-79
2022/04/16 14:39:51;;;;;;;4.20;1.20;;;;;;;;;;4941272;29;20070;-79
2022/04/16 14:42:17;;;;;;;1.15;1.05;;;;;;;;;;4956781;29;20027;-80
2022/04/16 14:44:51;;;;;;;1.73;1.20;;;;;;;;;;4958045;28;20035;-79
2022/04/16 14:47:17;;;;;;;2.05;1.13;;;;;;;;;;4944251;29;20035;-79
2022/04/16 14:49:42;;;;;;;1.85;1.10;;;;;;;;;;4957260;29;20027;-79
2022/04/16 14:52:08;;;;;;;1.00;0.90;;;;;;;;;;4955782;28;20031;-79
2022/04/16 14:54:34;;;;;;;1.30;1.20;;;;;;;;;;4953775;29;20031;-79
2022/04/16 14:56:59;;;;;;;1.50;1.20;;;;;;;;;;4953612;29;20039;-79
2022/04/16 14:59:25;;;;;;;3.47;1.10;;;;;;;;;;4953601;29;20031;-80
2022/04/16 15:01:50;;;;;;;2.28;1.30;;;;;;;;;;4952561;29;20039;-80